Archival Weather

Republic

Farmingdale, New York (KFRG)

Report from: Wednesday, February 7, 2024 7:53 PM EST
Current time: Friday, June 14, 2024 8:17 AM EDT

Current weather – Weather history – Daily summaries
Weather forecast

Temperature2.8°C (37.0°F)
Dew point-3.3°C (26.1°F)
Winds Calm
Visibility10 mi. (16.1 km)
Clouds Sky clear
Altimeter30.29 in.Hg (1026 mB)
Relative humidity64 %
Density altitude-1,829 ft. (-557 m)
Sea-level pressure102.6 kPa (1026 mB, 30.29 in.Hg)
Remarks Fully automated report
Automated weather observing station without precipitation discriminator
Flight conditions Visual Meteorological Conditions
Raw dataKFRG 080053Z AUTO 00000KT 10SM CLR 03/M03 A3029 RMK AO1 SLP257 T00281033
An error has occurred. This application may no longer respond until reloaded. Reload 🗙